Time;durP1;ratioP1;P1;durP2;ratioP2;P2;SDS_P1;SDS_P2;PMS_P1;PMS_P2;Temp;Humidity;BMP_temperature;BMP_pressure;BME280_temperature;BME280_humidity;BME280_pressure;Samples;Min_cycle;Max_cycle;Signal;HPM_P1;HPM_P2
2023/03/06 00:00:57;;;;;;;3.10;2.30;;;;;;;-1.26;77.06;97673.45;105263;1260;73666;-26
2023/03/06 00:03:26;;;;;;;5.00;2.90;;;;;;;-1.40;77.95;97668.93;105299;1263;61202;-25
2023/03/06 00:05:57;;;;;;;4.50;2.50;;;;;;;-1.53;78.51;97669.79;105515;1259;61059;-26
2023/03/06 00:08:27;;;;;;;4.50;2.40;;;;;;;-1.10;77.68;97669.48;105300;1260;73537;-25
2023/03/06 00:10:59;;;;;;;4.10;2.80;;;;;;;-0.66;75.88;97666.50;105112;1260;75870;-26
2023/03/06 00:13:33;;;;;;;7.00;3.00;;;;;;;-0.66;75.07;97661.94;105418;1259;74345;-26
2023/03/06 00:16:05;;;;;;;5.20;2.90;;;;;;;-0.88;75.12;97658.38;105501;1260;61125;-26
2023/03/06 00:18:34;;;;;;;6.10;3.10;;;;;;;-1.11;75.79;97653.36;105532;1259;61085;-26
2023/03/06 00:21:10;;;;;;;6.60;3.80;;;;;;;-1.35;76.87;97654.67;105367;1262;74528;-26
2023/03/06 00:23:40;;;;;;;7.20;3.40;;;;;;;-1.55;77.67;97651.56;105268;1264;75842;-25
2023/03/06 00:26:08;;;;;;;6.20;3.40;;;;;;;-1.68;78.13;97649.65;105501;1259;74040;-25
2023/03/06 00:28:38;;;;;;;6.40;3.10;;;;;;;-1.64;78.02;97645.36;105240;1262;61227;-26
2023/03/06 00:31:14;;;;;;;4.00;2.60;;;;;;;-0.96;76.65;97646.06;105127;1260;62012;-26
2023/03/06 00:33:46;;;;;;;7.70;3.80;;;;;;;-0.62;74.67;97642.79;105249;1259;74709;-26
2023/03/06 00:36:15;;;;;;;5.30;3.60;;;;;;;-0.67;74.49;97641.67;105120;1260;75645;-26
2023/03/06 00:38:43;;;;;;;6.80;4.10;;;;;;;-0.82;74.53;97645.65;105097;1259;73807;-25
2023/03/06 00:41:12;;;;;;;5.60;3.40;;;;;;;-1.01;75.08;97646.02;105141;1259;61260;-25
2023/03/06 00:43:41;;;;;;;5.90;3.60;;;;;;;-1.16;75.49;97643.13;105401;1259;61680;-26
2023/03/06 00:46:09;;;;;;;7.60;3.80;;;;;;;-1.35;76.27;97642.60;105193;1260;74424;-26
2023/03/06 00:48:39;;;;;;;5.80;3.60;;;;;;;-1.48;76.92;97644.02;105337;1260;74819;-26
2023/03/06 00:51:09;;;;;;;6.00;3.40;;;;;;;-1.37;77.40;97644.59;105238;1264;74251;-26
2023/03/06 00:53:42;;;;;;;9.40;3.90;;;;;;;-0.72;75.35;97647.44;105078;1258;61065;-26
2023/03/06 00:56:10;;;;;;;7.30;3.70;;;;;;;-0.50;73.86;97643.65;105087;1260;61628;-26
2023/03/06 00:58:40;;;;;;;5.60;3.50;;;;;;;-0.55;73.94;97642.54;105098;1259;74579;-26
2023/03/06 01:01:08;;;;;;;7.40;4.50;;;;;;;-0.70;74.18;97643.10;105215;1259;75831;-26
2023/03/06 01:03:39;;;;;;;5.70;3.90;;;;;;;-0.95;74.76;97631.87;105091;1259;74310;-26
2023/03/06 01:06:08;;;;;;;8.90;3.30;;;;;;;-1.15;75.56;97628.92;105193;1258;61075;-25
2023/03/06 01:08:38;;;;;;;9.60;4.50;;;;;;;-1.27;76.36;97632.98;105140;1262;61636;-25
2023/03/06 01:11:07;;;;;;;6.20;4.60;;;;;;;-1.41;76.74;97634.25;105476;1259;74200;-26
2023/03/06 01:13:36;;;;;;;8.70;4.20;;;;;;;-0.95;76.16;97643.98;105241;1259;76342;-26
2023/03/06 01:16:07;;;;;;;7.00;4.10;;;;;;;-0.52;74.27;97641.15;105155;1260;74011;-26
2023/03/06 01:18:37;;;;;;;5.20;3.90;;;;;;;-0.49;73.80;97647.64;104978;1265;61189;-26
2023/03/06 01:21:05;;;;;;;6.90;3.40;;;;;;;-0.67;73.91;97643.41;105143;1259;61887;-26
2023/03/06 01:23:35;;;;;;;6.80;4.40;;;;;;;-0.83;74.79;97642.12;105091;1262;74515;-27
2023/03/06 01:26:04;;;;;;;7.00;4.40;;;;;;;-1.04;75.43;97648.91;105083;1259;75778;-26
2023/03/06 01:28:34;;;;;;;5.30;4.10;;;;;;;-1.19;76.22;97646.52;105112;1260;73939;-26
2023/03/06 01:31:03;;;;;;;7.30;5.00;;;;;;;-1.21;76.49;97648.83;105107;1259;62713;-26
2023/03/06 01:33:33;;;;;;;5.00;3.50;;;;;;;-0.70;75.04;97656.20;105104;1259;61156;-26
2023/03/06 01:36:07;;;;;;;6.90;3.70;;;;;;;-0.58;74.55;97658.25;105198;1260;74558;-26
2023/03/06 01:38:36;;;;;;;5.80;4.50;;;;;;;-0.66;74.40;97660.25;105078;1260;74892;-26
2023/03/06 01:41:05;;;;;;;9.00;5.80;;;;;;;-0.78;74.59;97658.89;105128;1258;74022;-26
2023/03/06 01:43:34;;;;;;;6.00;4.60;;;;;;;-1.06;75.38;97643.42;105314;1257;61129;-26
2023/03/06 01:46:18;;;;;;;8.50;5.20;;;;;;;-1.26;75.80;97652.83;105139;1262;61763;-26
2023/03/06 01:48:47;;;;;;;;;;;;;;;-1.36;77.12;97655.95;105180;1260;75219;-26
2023/03/06 01:51:15;;;;;;;6.80;5.60;;;;;;;-0.92;75.77;97655.54;105448;1257;74887;-26
2023/03/06 01:53:43;;;;;;;7.80;5.40;;;;;;;-0.76;75.02;97653.82;105433;1257;74012;-26
2023/03/06 01:56:13;;;;;;;6.70;4.60;;;;;;;-0.91;75.59;97661.48;104991;1260;61204;-26
2023/03/06 01:58:42;;;;;;;10.00;7.40;;;;;;;-1.04;76.29;97663.20;105160;1259;61847;-26
2023/03/06 02:01:12;;;;;;;8.90;4.50;;;;;;;-1.20;77.35;97673.79;105330;1262;75627;-26
2023/03/06 02:03:40;;;;;;;10.70;6.50;;;;;;;-1.28;77.93;97673.58;105318;1265;76052;-26
2023/03/06 02:06:11;;;;;;;7.00;5.30;;;;;;;-1.22;77.77;97673.02;105558;1262;72852;-26
2023/03/06 02:08:48;;;;;;;7.20;4.90;;;;;;;-0.86;76.31;97669.05;105463;1260;61139;-26
2023/03/06 02:11:24;;;;;;;6.60;4.00;;;;;;;-0.60;74.40;97675.55;105386;1262;62049;-26
2023/03/06 02:13:54;;;;;;;12.20;5.40;;;;;;;-0.64;74.67;97674.79;105222;1260;75350;-26
2023/03/06 02:16:27;;;;;;;8.60;6.00;;;;;;;-0.94;75.45;97675.05;105248;1262;75932;-26
2023/03/06 02:19:01;;;;;;;9.90;5.60;;;;;;;-1.10;76.63;97674.95;105059;1259;74176;-25
2023/03/06 02:21:35;;;;;;;8.00;4.90;;;;;;;-1.23;76.66;97669.73;105137;1257;61091;-25
2023/03/06 02:24:10;;;;;;;7.90;5.10;;;;;;;-1.38;77.75;97674.08;104977;1258;60991;-26
2023/03/06 02:26:39;;;;;;;7.60;5.20;;;;;;;-1.39;77.82;97675.33;105069;1260;75355;-26
2023/03/06 02:29:10;;;;;;;7.40;5.20;;;;;;;-0.94;76.86;97676.77;105229;1259;75990;-26
2023/03/06 02:31:41;;;;;;;8.10;5.50;;;;;;;-0.69;75.98;97683.73;105566;1261;74097;-26
2023/03/06 02:34:15;;;;;;;7.60;5.10;;;;;;;-0.93;76.50;97684.58;105234;1258;61107;-26
2023/03/06 02:36:47;;;;;;;10.10;6.20;;;;;;;-1.25;77.34;97685.14;105117;1262;61878;-26
2023/03/06 02:39:17;;;;;;;7.20;5.80;;;;;;;-1.42;77.96;97682.17;105075;1264;75328;-26
2023/03/06 02:41:47;;;;;;;10.70;6.40;;;;;;;-1.56;78.61;97689.70;105204;1259;74836;-26
2023/03/06 02:44:16;;;;;;;8.00;5.30;;;;;;;-1.69;79.64;97684.41;105447;1260;73756;-25
2023/03/06 02:46:44;;;;;;;9.00;5.10;;;;;;;-1.21;78.15;97688.66;105133;1259;61129;-26
2023/03/06 02:49:13;;;;;;;6.00;3.50;;;;;;;-0.99;76.67;97692.39;105122;1262;61677;-26
2023/03/06 02:51:42;;;;;;;9.40;5.50;;;;;;;-1.07;76.68;97697.77;105185;1257;75060;-26
2023/03/06 02:54:12;;;;;;;10.80;5.50;;;;;;;-1.42;77.70;97696.65;105143;1261;75831;-26
2023/03/06 02:56:44;;;;;;;8.30;5.00;;;;;;;-1.55;78.21;97698.83;105214;1256;72757;-26
2023/03/06 02:59:12;;;;;;;9.40;5.00;;;;;;;-1.70;79.06;97698.65;105215;1257;61154;-26
2023/03/06 03:01:46;;;;;;;8.70;4.70;;;;;;;-1.92;79.72;97698.41;105099;1262;62067;-25
2023/03/06 03:04:15;;;;;;;7.00;4.40;;;;;;;-1.49;79.05;97700.59;105141;1262;75375;-26
2023/03/06 03:06:44;;;;;;;7.70;4.60;;;;;;;-1.14;77.12;97701.91;105210;1261;75833;-26
2023/03/06 03:09:13;;;;;;;7.50;4.00;;;;;;;-1.19;76.94;97707.79;105158;1259;74045;-26
2023/03/06 03:11:43;;;;;;;6.30;4.10;;;;;;;-1.38;77.22;97708.48;105421;1262;61843;-26
2023/03/06 03:14:12;;;;;;;8.10;3.90;;;;;;;-1.55;77.61;97707.51;105561;1261;61841;-26
2023/03/06 03:16:40;;;;;;;7.00;4.30;;;;;;;-1.71;78.46;97711.11;105217;1259;75266;-26
2023/03/06 03:19:09;;;;;;;11.90;4.20;;;;;;;-1.96;79.92;97714.27;105203;1259;75826;-26
2023/03/06 03:21:39;;;;;;;7.70;5.00;;;;;;;-2.05;80.28;97715.40;105253;1260;74279;-25
2023/03/06 03:24:08;;;;;;;6.40;4.20;;;;;;;-1.72;79.42;97721.50;105067;1265;61275;-25
2023/03/06 03:26:36;;;;;;;6.50;4.10;;;;;;;-1.35;77.70;97724.34;105129;1262;61956;-26
2023/03/06 03:29:09;;;;;;;7.80;4.10;;;;;;;-1.40;77.40;97722.72;105152;1260;75326;-26
2023/03/06 03:31:38;;;;;;;2.90;2.40;;;;;;;-1.50;77.71;97723.44;105141;1262;75779;-26
2023/03/06 03:34:07;;;;;;;6.80;3.70;;;;;;;-1.64;78.00;97729.11;105190;1257;74075;-26
2023/03/06 03:36:39;;;;;;;7.10;4.30;;;;;;;-1.80;78.94;97728.70;105192;1257;61071;-26
2023/03/06 03:39:10;;;;;;;8.30;4.60;;;;;;;-2.02;79.59;97729.38;105132;1261;61153;-26
2023/03/06 03:41:39;;;;;;;5.90;3.20;;;;;;;-2.06;80.48;97731.63;105211;1261;74845;-26
2023/03/06 03:44:09;;;;;;;8.80;4.30;;;;;;;-1.66;79.24;97731.60;105134;1262;75941;-26
2023/03/06 03:46:40;;;;;;;7.40;4.60;;;;;;;-1.54;78.48;97736.09;105103;1259;73597;-26
2023/03/06 03:49:13;;;;;;;5.20;4.10;;;;;;;-1.65;77.97;97735.11;105258;1259;61002;-26
2023/03/06 03:51:43;;;;;;;6.30;3.80;;;;;;;-1.86;77.86;97739.45;105595;1259;62466;-26
2023/03/06 03:54:11;;;;;;;7.60;4.40;;;;;;;-2.09;78.76;97747.58;105430;1259;75344;-26
2023/03/06 03:56:43;;;;;;;6.50;3.90;;;;;;;-2.20;79.69;97751.69;105304;1262;74289;-26
2023/03/06 04:02:20;;;;;;;6.30;3.80;;;;;;;-1.87;79.34;97750.53;103573;1280;616215;-25
2023/03/06 04:04:54;;;;;;;5.60;3.30;;;;;;;-1.66;77.34;97753.73;105159;1268;61179;-25
2023/03/06 04:07:22;;;;;;;6.90;3.00;;;;;;;-1.80;77.62;97750.17;105205;1264;61575;-24
2023/03/06 04:09:49;;;;;;;3.80;2.80;;;;;;;-1.95;77.77;97749.21;104854;1264;73770;-25
2023/03/06 04:12:17;;;;;;;5.60;3.90;;;;;;;-2.14;77.60;97748.66;105209;1264;75885;-24
2023/03/06 04:14:46;;;;;;;6.30;3.10;;;;;;;-2.33;78.38;97748.23;103487;1263;2062128;-25
2023/03/06 04:17:13;;;;;;;4.50;3.50;;;;;;;-2.49;78.96;97743.40;105173;1263;61115;-25
2023/03/06 04:19:41;;;;;;;5.90;3.90;;;;;;;-2.42;78.90;97743.75;105073;1266;61871;-24
2023/03/06 04:22:08;;;;;;;2.90;2.60;;;;;;;-1.80;76.90;97752.38;105111;1269;73740;-25
2023/03/06 04:24:36;;;;;;;4.60;3.10;;;;;;;-1.86;76.41;97751.33;105162;1264;75592;-24
2023/03/06 04:27:07;;;;;;;6.80;3.10;;;;;;;-2.04;77.02;97754.61;105217;1264;74018;-25
2023/03/06 04:29:35;;;;;;;5.00;3.70;;;;;;;-2.14;77.46;97757.85;105214;1262;61048;-24
2023/03/06 04:32:02;;;;;;;4.00;2.70;;;;;;;-2.26;77.85;97758.80;105177;1266;61810;-24
2023/03/06 04:34:29;;;;;;;6.80;3.40;;;;;;;-2.35;78.73;97757.52;105086;1263;74473;-25
2023/03/06 04:37:01;;;;;;;5.60;2.90;;;;;;;-2.49;79.43;97760.59;105113;1260;73905;-24
2023/03/06 04:39:29;;;;;;;4.40;2.90;;;;;;;-2.01;78.45;97762.30;104949;1266;73939;-24
2023/03/06 04:41:56;;;;;;;8.40;3.10;;;;;;;-1.75;76.36;97765.73;105082;1261;61170;-25
2023/03/06 04:44:25;;;;;;;8.10;3.50;;;;;;;-2.01;75.63;97771.83;105149;1266;61712;-24
2023/03/06 04:46:52;;;;;;;4.80;3.40;;;;;;;-2.30;76.49;97772.95;104812;1260;74318;-25
2023/03/06 04:49:19;;;;;;;5.30;3.70;;;;;;;-2.43;76.87;97776.27;105254;1260;75429;-24
2023/03/06 04:51:46;;;;;;;4.80;3.30;;;;;;;-2.59;77.45;97781.64;105258;1261;74247;-24
2023/03/06 04:54:13;;;;;;;9.70;3.60;;;;;;;-2.90;78.45;97783.24;105217;1260;61465;-25
2023/03/06 04:56:40;;;;;;;3.60;2.60;;;;;;;-2.68;78.27;97783.62;105134;1260;61726;-25
2023/03/06 04:59:09;;;;;;;4.50;2.70;;;;;;;-2.23;76.44;97786.20;105259;1264;74232;-25
2023/03/06 05:01:36;;;;;;;5.20;3.10;;;;;;;-2.20;75.73;97788.59;105229;1260;75595;-25
2023/03/06 05:04:04;;;;;;;7.50;3.60;;;;;;;-2.30;75.73;97790.95;105495;1260;74211;-24
2023/03/06 05:06:32;;;;;;;3.30;2.60;;;;;;;-2.47;75.78;97791.77;105467;1261;61087;-24
2023/03/06 05:08:59;;;;;;;6.30;3.40;;;;;;;-2.63;76.25;97789.48;105466;1260;61543;-25
2023/03/06 05:11:26;;;;;;;5.40;3.20;;;;;;;-2.74;75.85;97791.34;105457;1263;74522;-25
2023/03/06 05:13:55;;;;;;;5.20;3.00;;;;;;;-2.93;75.70;97800.20;105501;1263;75816;-24
2023/03/06 05:16:22;;;;;;;4.40;2.80;;;;;;;-3.17;76.09;97801.11;105176;1259;74176;-24
2023/03/06 05:18:49;;;;;;;4.20;2.20;;;;;;;-3.14;75.19;97802.52;105374;1260;62617;-24
2023/03/06 05:21:17;;;;;;;5.00;2.30;;;;;;;-2.83;73.81;97805.02;105256;1260;61908;-25
2023/03/06 05:23:44;;;;;;;4.10;2.40;;;;;;;-2.63;73.03;97814.64;105257;1261;74381;-24
2023/03/06 05:26:12;;;;;;;2.30;2.10;;;;;;;-2.76;73.16;97814.89;105275;1260;75668;-25
2023/03/06 05:28:39;;;;;;;6.50;2.80;;;;;;;-2.74;73.39;97822.95;105242;1259;74234;-24
2023/03/06 05:31:08;;;;;;;3.80;2.30;;;;;;;-2.69;74.08;97824.10;105629;1257;61067;-24
2023/03/06 05:33:35;;;;;;;2.60;2.00;;;;;;;-2.65;73.60;97828.11;105649;1260;61848;-24
2023/03/06 05:36:03;;;;;;;4.80;3.20;;;;;;;-2.76;73.93;97830.69;105687;1257;73629;-24
2023/03/06 05:38:31;;;;;;;6.40;2.60;;;;;;;-2.91;73.70;97829.99;105524;1256;75755;-24
2023/03/06 05:40:58;;;;;;;4.50;2.90;;;;;;;-3.20;74.04;97830.98;105579;1257;73302;-25
2023/03/06 05:43:25;;;;;;;5.50;2.50;;;;;;;-3.22;74.93;97837.69;105658;1255;61111;-26
2023/03/06 05:46:01;;;;;;;3.40;1.50;;;;;;;-2.96;73.81;97837.86;105703;1258;62869;-26
2023/03/06 05:48:28;;;;;;;3.50;2.10;;;;;;;-2.49;72.51;97840.13;105290;1257;72405;-26
2023/03/06 05:50:56;;;;;;;5.90;2.30;;;;;;;-2.29;71.57;97839.70;105596;1257;75781;-26
2023/03/06 05:53:25;;;;;;;2.90;1.90;;;;;;;-2.45;71.19;97840.82;105584;1263;74094;-25
2023/03/06 05:56:04;;;;;;;4.00;2.40;;;;;;;-2.60;71.63;97836.21;105584;1257;61214;-27
2023/03/06 05:58:32;;;;;;;6.40;2.40;;;;;;;-2.75;72.18;97839.83;105513;1260;61592;-28
2023/03/06 06:01:00;;;;;;;4.90;2.70;;;;;;;-2.82;72.64;97843.70;105583;1263;73371;-26
2023/03/06 06:03:27;;;;;;;4.10;2.80;;;;;;;-2.98;72.66;97842.56;105544;1257;75789;-26
2023/03/06 06:05:54;;;;;;;5.50;3.00;;;;;;;-3.12;73.20;97842.20;105599;1255;73917;-26
2023/03/06 06:08:21;;;;;;;4.90;2.50;;;;;;;-3.23;73.41;97844.35;105459;1255;61162;-26
2023/03/06 06:10:48;;;;;;;4.80;2.40;;;;;;;-3.17;74.08;97846.14;105574;1257;61824;-26
2023/03/06 06:13:23;;;;;;;3.60;2.10;;;;;;;-2.59;72.21;97845.20;105305;1254;74434;-26
2023/03/06 06:15:57;;;;;;;4.70;2.50;;;;;;;-2.10;69.99;97847.46;105508;1258;75792;-26
2023/03/06 06:18:24;;;;;;;5.60;2.40;;;;;;;-2.18;69.50;97845.98;105565;1255;74023;-26
2023/03/06 06:20:51;;;;;;;6.20;2.70;;;;;;;-2.30;70.03;97847.73;105552;1257;60944;-26
2023/03/06 06:23:21;;;;;;;5.50;3.30;;;;;;;-2.41;69.86;97845.20;105371;1260;61465;-26
2023/03/06 06:25:48;;;;;;;6.50;2.70;;;;;;;-2.50;70.79;97851.25;105592;1258;74481;-26
2023/03/06 06:28:15;;;;;;;3.00;2.10;;;;;;;-2.53;70.78;97853.41;105568;1257;75820;-26
2023/03/06 06:30:43;;;;;;;5.10;2.80;;;;;;;-2.56;70.75;97854.07;105529;1255;74171;-25
2023/03/06 06:33:11;;;;;;;5.70;2.70;;;;;;;-2.58;71.22;97860.08;105541;1257;61132;-26
2023/03/06 06:35:38;;;;;;;3.90;2.60;;;;;;;-2.64;70.69;97862.23;105473;1254;61148;-26
2023/03/06 06:38:07;;;;;;;3.20;2.20;;;;;;;-2.61;70.79;97866.01;105663;1259;74484;-26
2023/03/06 06:40:34;;;;;;;3.10;2.10;;;;;;;-2.48;70.71;97872.55;105615;1254;75820;-27
2023/03/06 06:43:02;;;;;;;4.60;2.70;;;;;;;-2.50;69.66;97864.63;105691;1255;73351;-26
2023/03/06 06:45:29;;;;;;;5.60;2.70;;;;;;;-2.51;69.56;97868.29;105648;1255;61077;-26
2023/03/06 06:47:57;;;;;;;5.40;2.50;;;;;;;-2.41;70.03;97871.88;105654;1257;61728;-26
2023/03/06 06:50:24;;;;;;;6.60;2.90;;;;;;;-2.39;69.86;97871.10;105625;1260;73471;-26
2023/03/06 06:52:51;;;;;;;5.20;2.90;;;;;;;-2.28;69.80;97873.65;105577;1254;75527;-26
2023/03/06 06:55:20;;;;;;;3.20;2.20;;;;;;;-2.25;69.60;97871.46;105549;1255;73163;-26
2023/03/06 06:57:47;;;;;;;3.90;2.50;;;;;;;-2.11;69.89;97877.44;105624;1256;61052;-25
2023/03/06 07:00:16;;;;;;;5.50;2.10;;;;;;;-2.05;69.18;97879.04;105456;1260;61863;-26
2023/03/06 07:02:47;;;;;;;3.60;2.40;;;;;;;-1.99;68.59;97883.81;105578;1263;74583;-25
2023/03/06 07:05:15;;;;;;;4.20;2.30;;;;;;;-1.93;68.71;97878.77;105661;1258;75818;-26
2023/03/06 07:07:43;;;;;;;3.40;1.90;;;;;;;-1.88;68.94;97884.02;105644;1254;74119;-26
2023/03/06 07:10:13;;;;;;;4.50;2.30;;;;;;;-1.83;68.50;97888.31;105597;1254;61139;-26
2023/03/06 07:12:44;;;;;;;3.80;2.50;;;;;;;-1.80;68.35;97881.55;105535;1262;61584;-26
2023/03/06 07:15:13;;;;;;;3.70;2.30;;;;;;;-1.88;68.18;97888.39;105609;1257;74091;-26
2023/03/06 07:17:41;;;;;;;5.40;2.80;;;;;;;-1.92;67.94;97888.77;105527;1255;75580;-26
2023/03/06 07:20:12;;;;;;;4.60;2.80;;;;;;;-1.90;68.25;97890.73;105611;1254;74160;-26
2023/03/06 07:22:40;;;;;;;4.30;2.30;;;;;;;-1.92;68.63;97890.46;105587;1254;61059;-30
2023/03/06 07:25:18;;;;;;;7.40;3.10;;;;;;;-1.94;68.67;97894.64;105607;1263;61067;-25
2023/03/06 07:27:45;;;;;;;3.70;2.50;;;;;;;-1.93;68.89;97897.52;105682;1257;74522;-25
2023/03/06 07:30:21;;;;;;;4.50;2.30;;;;;;;-1.67;69.17;97900.30;105611;1260;75790;-26
2023/03/06 07:32:52;;;;;;;3.30;2.10;;;;;;;-0.81;67.43;97901.84;105575;1258;74055;-25
2023/03/06 07:35:20;;;;;;;5.00;3.40;;;;;;;-0.42;65.24;97901.33;105493;1255;61367;-28
2023/03/06 07:37:47;;;;;;;2.70;2.20;;;;;;;-0.52;65.23;97903.23;105658;1257;61798;-27
2023/03/06 07:40:15;;;;;;;5.20;2.60;;;;;;;-0.53;65.30;97907.55;105599;1258;74545;-27
2023/03/06 07:42:42;;;;;;;5.60;3.00;;;;;;;-0.62;65.04;97911.30;105659;1258;74863;-29
2023/03/06 07:45:12;;;;;;;6.80;2.70;;;;;;;-0.72;65.76;97909.58;105659;1259;74182;-28
2023/03/06 07:47:40;;;;;;;5.80;3.00;;;;;;;-0.80;65.14;97909.98;105618;1260;61088;-26
2023/03/06 07:50:09;;;;;;;4.20;2.50;;;;;;;-0.90;65.96;97907.98;105575;1260;61726;-25
2023/03/06 07:52:38;;;;;;;2.60;2.00;;;;;;;-1.02;65.37;97908.77;105243;1257;73582;-25
2023/03/06 07:55:06;;;;;;;5.80;2.70;;;;;;;-1.04;66.18;97906.66;105698;1259;75893;-25
2023/03/06 07:57:35;;;;;;;5.60;2.90;;;;;;;-0.89;65.85;97911.16;105642;1254;74111;-25
2023/03/06 08:00:04;;;;;;;3.90;2.40;;;;;;;-0.88;65.43;97906.70;105587;1256;61007;-25
2023/03/06 08:02:39;;;;;;;4.50;3.40;;;;;;;-0.92;65.29;97913.05;105616;1256;61845;-25
2023/03/06 08:05:08;;;;;;;4.50;2.50;;;;;;;-1.05;65.69;97908.77;105641;1257;74614;-25
2023/03/06 08:07:36;;;;;;;5.40;2.80;;;;;;;-1.18;66.09;97911.95;105635;1258;75834;-26
2023/03/06 08:10:04;;;;;;;6.40;3.40;;;;;;;-1.06;66.75;97919.88;105427;1257;74123;-26
2023/03/06 08:12:31;;;;;;;3.60;2.80;;;;;;;-0.93;66.44;97918.88;105605;1255;61150;-26
2023/03/06 08:14:58;;;;;;;4.60;2.40;;;;;;;-0.85;65.62;97915.21;105585;1259;61925;-26
2023/03/06 08:17:31;;;;;;;4.50;2.70;;;;;;;-0.68;65.23;97916.01;105600;1257;74391;-26
2023/03/06 08:19:58;;;;;;;4.50;3.10;;;;;;;-0.48;64.30;97920.41;105567;1257;75864;-26
2023/03/06 08:22:25;;;;;;;4.50;2.30;;;;;;;-0.27;63.03;97922.20;105629;1257;74118;-26
2023/03/06 08:24:55;;;;;;;3.50;2.40;;;;;;;-0.17;62.36;97920.77;105600;1258;61126;-26
2023/03/06 08:27:22;;;;;;;1.60;1.50;;;;;;;-0.22;61.60;97925.15;105486;1260;61997;-26
2023/03/06 08:29:51;;;;;;;4.70;2.10;;;;;;;-0.12;61.64;97933.49;105547;1257;74930;-26
2023/03/06 08:32:18;;;;;;;5.20;3.30;;;;;;;-0.11;62.09;97932.39;105487;1258;75674;-26
2023/03/06 08:34:45;;;;;;;3.70;2.20;;;;;;;-0.02;61.15;97932.41;105530;1260;74247;-26
2023/03/06 08:37:16;;;;;;;3.20;2.10;;;;;;;-0.06;60.95;97930.75;105588;1255;61161;-26
2023/03/06 08:39:44;;;;;;;6.30;2.30;;;;;;;-0.17;61.06;97926.94;105577;1258;61663;-26
2023/03/06 08:42:11;;;;;;;3.70;1.80;;;;;;;-0.31;61.15;97926.83;105472;1257;75582;-26
2023/03/06 08:44:39;;;;;;;5.50;2.80;;;;;;;-0.30;61.03;97939.72;105569;1258;75729;-25
2023/03/06 08:47:06;;;;;;;4.60;2.10;;;;;;;-0.24;59.02;97935.98;105536;1254;74046;-25
2023/03/06 08:49:34;;;;;;;5.00;2.60;;;;;;;-0.21;61.49;97940.11;105638;1255;61246;-25
2023/03/06 08:52:02;;;;;;;5.80;2.70;;;;;;;-0.11;61.61;97944.33;105375;1259;61718;-26
2023/03/06 08:54:33;;;;;;;3.00;2.50;;;;;;;-0.02;61.15;97944.22;105523;1254;75407;-24
2023/03/06 08:57:00;;;;;;;4.50;2.40;;;;;;;-0.02;59.97;97945.57;105603;1254;75550;-24
2023/03/06 08:59:28;;;;;;;5.20;2.60;;;;;;;-0.13;60.73;97940.48;105623;1254;73075;-25
2023/03/06 09:01:55;;;;;;;4.90;2.10;;;;;;;-0.13;59.61;97941.05;105566;1255;61074;-25
2023/03/06 09:04:36;;;;;;;4.70;2.90;;;;;;;-0.11;60.09;97939.07;105490;1254;61743;-25
2023/03/06 09:07:04;;;;;;;4.80;2.50;;;;;;;-0.11;60.92;97941.41;105671;1258;75579;-25
2023/03/06 09:09:31;;;;;;;3.60;2.30;;;;;;;0.02;60.25;97944.78;105646;1257;74736;-25
2023/03/06 09:12:00;;;;;;;4.50;2.80;;;;;;;-0.02;60.10;97942.13;105694;1259;74328;-25
2023/03/06 09:14:28;;;;;;;4.40;3.10;;;;;;;-0.21;60.53;97940.58;105646;1258;61097;-25
2023/03/06 09:16:55;;;;;;;5.90;3.00;;;;;;;-0.22;61.04;97947.00;105698;1259;61669;-24
2023/03/06 09:19:22;;;;;;;4.90;3.10;;;;;;;-0.20;60.35;97943.93;105595;1255;75234;-25
2023/03/06 09:21:50;;;;;;;5.30;2.70;;;;;;;-0.18;60.29;97947.45;105654;1255;75938;-25
2023/03/06 09:24:20;;;;;;;3.40;2.50;;;;;;;-0.13;60.37;97948.73;105582;1260;74361;-25
2023/03/06 09:26:47;;;;;;;3.30;2.20;;;;;;;-0.00;60.53;97952.98;105651;1260;61103;-25
2023/03/06 09:29:18;;;;;;;4.50;2.20;;;;;;;0.13;58.94;97950.52;105618;1259;61694;-25
2023/03/06 09:31:47;;;;;;;3.00;2.20;;;;;;;0.19;57.72;97951.91;105615;1260;74439;-25
2023/03/06 09:34:14;;;;;;;4.40;2.50;;;;;;;0.21;57.90;97955.73;105657;1258;74703;-25
2023/03/06 09:36:43;;;;;;;3.70;2.20;;;;;;;0.18;57.01;97955.56;105629;1257;74007;-24
2023/03/06 09:39:24;;;;;;;2.90;1.60;;;;;;;0.22;56.84;97954.30;105651;1254;61057;-24
2023/03/06 09:41:51;;;;;;;5.30;1.80;;;;;;;0.25;55.48;97957.86;105629;1257;61100;-27
2023/03/06 09:44:24;;;;;;;2.30;1.70;;;;;;;0.33;54.88;97961.02;105462;1257;75145;-24
2023/03/06 09:47:16;;;;;;;7.00;1.50;;;;;;;0.41;53.15;97954.93;105663;1258;75832;-26
2023/03/06 09:50:12;;;;;;;3.40;1.60;;;;;;;0.39;52.00;97957.94;105655;1258;74294;-25
2023/03/06 09:52:42;;;;;;;4.60;1.80;;;;;;;0.46;52.31;97956.33;105652;1257;61244;-25
2023/03/06 09:55:14;;;;;;;1.80;1.60;;;;;;;0.46;51.23;97959.27;105489;1260;61758;-25
2023/03/06 09:57:44;;;;;;;4.80;2.40;;;;;;;0.50;52.68;97958.52;105522;1258;75061;-26
2023/03/06 10:00:15;;;;;;;4.00;2.10;;;;;;;0.45;51.97;97953.14;105371;1258;75749;-25
2023/03/06 10:02:49;;;;;;;3.70;2.10;;;;;;;0.37;52.67;97955.98;105606;1256;74169;-26
2023/03/06 10:05:28;;;;;;;3.40;1.40;;;;;;;0.46;51.26;97952.58;105575;1257;61272;-25
2023/03/06 10:08:10;;;;;;;4.80;2.00;;;;;;;0.47;50.67;97954.41;105540;1262;62001;-25
2023/03/06 10:11:00;;;;;;;3.20;1.60;;;;;;;0.51;52.90;97953.64;105610;1263;75472;-25
2023/03/06 10:13:49;;;;;;;3.60;1.80;;;;;;;0.66;52.08;97959.79;105615;1260;75794;-25
2023/03/06 10:16:30;;;;;;;3.80;2.90;;;;;;;0.75;51.21;97955.02;105556;1257;73119;-25
2023/03/06 10:19:02;;;;;;;3.00;2.00;;;;;;;0.74;49.34;97952.34;105537;1258;61159;-26
2023/03/06 10:21:33;;;;;;;7.10;2.40;;;;;;;0.58;49.76;97952.43;105242;1256;61160;-25
2023/03/06 10:24:24;;;;;;;4.10;2.30;;;;;;;0.60;48.80;97950.94;105515;1257;75316;-25
2023/03/06 10:26:57;;;;;;;3.50;1.60;;;;;;;0.59;50.77;97955.95;105640;1258;75824;-25
2023/03/06 10:29:43;;;;;;;3.30;1.90;;;;;;;0.66;52.46;97952.65;105546;1263;72678;-26
2023/03/06 10:32:30;;;;;;;5.30;2.90;;;;;;;0.59;53.35;97956.95;105481;1260;61300;-26
2023/03/06 10:35:20;;;;;;;6.80;1.90;;;;;;;0.34;54.11;97948.47;105511;1255;61208;-26
2023/03/06 10:37:47;;;;;;;;;;;;;;;0.38;53.09;97945.54;105205;1263;75427;-26
2023/03/06 10:40:17;;;;;;;5.10;2.40;;;;;;;0.24;52.26;97943.92;105642;1258;75953;-26
2023/03/06 10:42:45;;;;;;;2.90;2.30;;;;;;;0.14;52.19;97942.10;105449;1258;72971;-28
2023/03/06 10:45:16;;;;;;;2.00;1.60;;;;;;;0.26;52.68;97939.38;105546;1255;61166;-27
2023/03/06 10:47:43;;;;;;;5.40;2.60;;;;;;;0.43;52.41;97941.13;105529;1260;61591;-27
2023/03/06 10:50:25;;;;;;;2.20;1.80;;;;;;;0.41;53.73;97942.63;105622;1258;75141;-28
2023/03/06 10:53:01;;;;;;;3.10;2.20;;;;;;;0.34;55.65;97941.31;105520;1262;75849;-27
2023/03/06 10:55:33;;;;;;;4.80;3.30;;;;;;;0.54;55.74;97942.23;105367;1255;74406;-27
2023/03/06 10:58:28;;;;;;;4.30;2.00;;;;;;;0.61;55.93;97944.19;105624;1260;61880;-24
2023/03/06 11:01:07;;;;;;;4.20;2.80;;;;;;;0.63;56.23;97944.61;105619;1260;61869;-25
2023/03/06 11:03:35;;;;;;;4.50;3.00;;;;;;;0.55;57.10;97941.32;105624;1257;75327;-25
2023/03/06 11:06:12;;;;;;;6.60;3.00;;;;;;;0.60;57.33;97938.30;105646;1259;75917;-25
2023/03/06 11:08:42;;;;;;;3.60;2.40;;;;;;;0.46;58.32;97939.23;105647;1258;74202;-26
2023/03/06 11:11:14;;;;;;;4.40;2.70;;;;;;;0.53;58.85;97932.36;105245;1260;61129;-25
2023/03/06 11:13:57;;;;;;;6.80;3.60;;;;;;;0.50;59.47;97936.63;105623;1258;61170;-26
2023/03/06 11:16:31;;;;;;;4.10;3.00;;;;;;;0.61;59.24;97926.13;105445;1255;74311;-26
2023/03/06 11:19:05;;;;;;;3.80;2.70;;;;;;;0.66;58.59;97931.96;105627;1258;74904;-25
2023/03/06 11:21:35;;;;;;;4.00;2.40;;;;;;;0.67;58.18;97926.58;105668;1258;74041;-26
2023/03/06 11:24:07;;;;;;;6.60;3.30;;;;;;;0.45;58.31;97937.59;105660;1260;61163;-26
2023/03/06 11:26:39;;;;;;;7.00;3.00;;;;;;;0.51;57.94;97932.80;105657;1260;61045;-25
2023/03/06 11:29:35;;;;;;;3.20;2.30;;;;;;;0.24;58.50;97930.42;105641;1255;75226;-25
2023/03/06 11:32:19;;;;;;;3.90;2.60;;;;;;;0.31;58.75;97929.69;105747;1257;74921;-27
2023/03/06 11:35:14;;;;;;;4.50;3.00;;;;;;;0.38;56.44;97929.32;105918;1253;74070;-25
2023/03/06 11:37:52;;;;;;;5.30;2.70;;;;;;;0.31;56.66;97929.52;105946;1251;61414;-25
2023/03/06 11:40:30;;;;;;;3.30;2.30;;;;;;;0.11;56.39;97928.96;105687;1260;61696;-25
2023/03/06 11:43:04;;;;;;;4.10;2.70;;;;;;;0.10;56.20;97924.04;105839;1251;75360;-25
2023/03/06 11:45:43;;;;;;;5.80;3.00;;;;;;;0.14;56.71;97923.33;105991;1256;74781;-25